Time;durP1;ratioP1;P1;durP2;ratioP2;P2;SDS_P1;SDS_P2;PMS_P1;PMS_P2;Temp;Humidity;BMP_temperature;BMP_pressure;BME280_temperature;BME280_humidity;BME280_pressure;Samples;Min_cycle;Max_cycle;Signal;HPM_P1;HPM_P2
2022/01/06 00:04:57;;;;;;;1.08;0.80;;;;;;;;;;4961660;28;20405;-96
2022/01/06 00:08:06;;;;;;;1.20;0.70;;;;;;;;;;5341978;23;20483;-95
2022/01/06 00:14:39;;;;;;;0.60;0.60;;;;;;;;;;4904791;29;20410;-95
2022/01/06 00:17:39;;;;;;;0.50;0.50;;;;;;;;;;4941748;28;20416;-95
2022/01/06 00:36:12;;;;;;;0.70;0.30;;;;;;;;;;4940649;29;20405;-95
2022/01/06 00:39:38;;;;;;;0.40;0.30;;;;;;;;;;4950426;29;20426;-96
2022/01/06 00:45:50;;;;;;;0.30;0.30;;;;;;;;;;4889642;29;20932;-95
2022/01/06 00:57:04;;;;;;;0.32;0.28;;;;;;;;;;4910197;28;20509;-96
2022/01/06 01:00:38;;;;;;;1.27;0.40;;;;;;;;;;4945184;28;20418;-95
2022/01/06 01:06:47;;;;;;;;;;;;;;;;;;;;;
2022/01/06 01:09:31;;;;;;;0.40;0.20;;;;;;;;;;4929016;28;20416;-96
2022/01/06 01:14:53;;;;;;;0.32;0.20;;;;;;;;;;4941896;28;20459;-96
2022/01/06 01:17:24;;;;;;;0.20;0.10;;;;;;;;;;4949168;28;20472;-96
2022/01/06 01:20:20;;;;;;;0.38;0.20;;;;;;;;;;4941806;29;20682;-95
2022/01/06 01:22:51;;;;;;;0.30;0.20;;;;;;;;;;4938514;29;20421;-96
2022/01/06 01:25:35;;;;;;;0.38;0.28;;;;;;;;;;4950829;29;20429;-96
2022/01/06 01:31:01;;;;;;;1.27;0.30;;;;;;;;;;4964297;28;20476;-95
2022/01/06 01:33:51;;;;;;;0.30;0.20;;;;;;;;;;4961192;29;20404;-95
2022/01/06 01:36:33;;;;;;;0.30;0.30;;;;;;;;;;4947293;29;20506;-95
2022/01/06 01:39:33;;;;;;;0.20;0.20;;;;;;;;;;4933940;29;20410;-96
2022/01/06 01:42:13;;;;;;;0.70;0.40;;;;;;;;;;4935705;29;20416;-95
2022/01/06 01:45:02;;;;;;;0.55;0.40;;;;;;;;;;4944993;28;20416;-96
2022/01/06 01:47:48;;;;;;;0.30;0.30;;;;;;;;;;4947807;29;20467;-96
2022/01/06 01:50:25;;;;;;;0.30;0.20;;;;;;;;;;4947856;29;20423;-95
2022/01/06 01:53:24;;;;;;;0.20;0.20;;;;;;;;;;4945070;28;20411;-94
2022/01/06 01:56:02;;;;;;;0.45;0.20;;;;;;;;;;4943841;28;20773;-94
2022/01/06 01:58:40;;;;;;;0.68;0.20;;;;;;;;;;4946812;29;20492;-95
2022/01/06 02:01:16;;;;;;;0.20;0.10;;;;;;;;;;4943343;28;20420;-94
2022/01/06 02:03:58;;;;;;;;;;;;;;;;;;;;;
2022/01/06 02:06:31;;;;;;;0.20;0.20;;;;;;;;;;4938179;29;20433;-95
2022/01/06 02:09:17;;;;;;;;;;;;;;;;;;;;;
2022/01/06 02:11:44;;;;;;;0.10;0.10;;;;;;;;;;4944470;29;20407;-95
2022/01/06 02:14:19;;;;;;;0.10;0.10;;;;;;;;;;4949369;29;20416;-95
2022/01/06 02:16:56;;;;;;;;;;;;;;;;;;;;;
2022/01/06 02:19:40;;;;;;;0.20;0.20;;;;;;;;;;4934831;29;20414;-96
2022/01/06 02:22:26;;;;;;;0.20;0.20;;;;;;;;;;4947922;28;20500;-95
2022/01/06 02:28:02;;;;;;;0.25;0.25;;;;;;;;;;4947219;28;20423;-94
2022/01/06 02:30:50;;;;;;;0.30;0.28;;;;;;;;;;4935556;29;20449;-95
2022/01/06 02:33:27;;;;;;;0.35;0.30;;;;;;;;;;4944458;28;20427;-96
2022/01/06 02:36:19;;;;;;;;;;;;;;;;;;;;;
2022/01/06 02:38:57;;;;;;;0.95;0.30;;;;;;;;;;4937370;29;20428;-95
2022/01/06 02:41:43;;;;;;;0.30;0.30;;;;;;;;;;4949421;29;20416;-94
2022/01/06 02:44:24;;;;;;;0.30;0.25;;;;;;;;;;4945203;29;20435;-94
2022/01/06 02:47:00;;;;;;;0.60;0.40;;;;;;;;;;4946475;28;20410;-94
2022/01/06 02:49:29;;;;;;;0.60;0.30;;;;;;;;;;4940797;29;20511;-95
2022/01/06 02:52:06;;;;;;;;;;;;;;;;;;;;;
2022/01/06 02:54:38;;;;;;;2.10;0.60;;;;;;;;;;4947481;29;20462;-94
2022/01/06 02:57:10;;;;;;;0.70;0.50;;;;;;;;;;4934534;29;20426;-95
2022/01/06 02:59:50;;;;;;;0.22;0.22;;;;;;;;;;4943936;29;20420;-95
2022/01/06 03:02:17;;;;;;;0.30;0.30;;;;;;;;;;4945250;28;20412;-95
2022/01/06 03:04:44;;;;;;;0.40;0.32;;;;;;;;;;4956996;28;20410;-95
2022/01/06 03:07:20;;;;;;;0.38;0.30;;;;;;;;;;4960808;29;20410;-95
2022/01/06 03:09:58;;;;;;;0.65;0.22;;;;;;;;;;4961531;28;20408;-96
2022/01/06 03:15:16;;;;;;;0.20;0.20;;;;;;;;;;4955820;28;20420;-94
2022/01/06 03:17:59;;;;;;;0.20;0.20;;;;;;;;;;4953627;28;20414;-94
2022/01/06 03:20:40;;;;;;;0.50;0.23;;;;;;;;;;4957034;29;20486;-94
2022/01/06 03:26:04;;;;;;;0.38;0.28;;;;;;;;;;4960549;29;20432;-94
2022/01/06 03:31:18;;;;;;;0.60;0.30;;;;;;;;;;4955854;28;20428;-94
2022/01/06 03:33:51;;;;;;;0.40;0.40;;;;;;;;;;4958524;28;20406;-94
2022/01/06 03:36:19;;;;;;;0.90;0.50;;;;;;;;;;4956274;29;20945;-94
2022/01/06 03:38:46;;;;;;;0.30;0.30;;;;;;;;;;4960274;29;20432;-95
2022/01/06 03:41:29;;;;;;;0.77;0.50;;;;;;;;;;4962836;28;20475;-95
2022/01/06 03:44:41;;;;;;;1.05;0.40;;;;;;;;;;4956746;29;20420;-95
2022/01/06 03:47:11;;;;;;;0.45;0.40;;;;;;;;;;4948873;29;20420;-95
2022/01/06 03:49:46;;;;;;;0.50;0.40;;;;;;;;;;4960216;29;20408;-94
2022/01/06 03:52:30;;;;;;;0.40;0.40;;;;;;;;;;4959721;29;20407;-96
2022/01/06 03:54:58;;;;;;;0.50;0.50;;;;;;;;;;4962799;29;20901;-94
2022/01/06 03:57:29;;;;;;;0.50;0.50;;;;;;;;;;4959044;28;20417;-94
2022/01/06 04:00:15;;;;;;;0.50;0.40;;;;;;;;;;4955398;29;20412;-94
2022/01/06 04:03:03;;;;;;;1.85;0.55;;;;;;;;;;4957765;29;20417;-95
2022/01/06 04:05:33;;;;;;;0.60;0.30;;;;;;;;;;4951742;29;20402;-94
2022/01/06 04:08:04;;;;;;;0.40;0.40;;;;;;;;;;4956520;28;20452;-94
2022/01/06 04:10:44;;;;;;;0.30;0.30;;;;;;;;;;4962089;28;20420;-93
2022/01/06 04:13:14;;;;;;;0.47;0.30;;;;;;;;;;4964329;28;20419;-94
2022/01/06 04:18:38;;;;;;;0.47;0.40;;;;;;;;;;4954542;29;20449;-94
2022/01/06 04:22:08;;;;;;;0.40;0.40;;;;;;;;;;4955544;28;20389;-93
2022/01/06 04:24:55;;;;;;;1.13;0.40;;;;;;;;;;4961399;29;20430;-95
2022/01/06 04:27:31;;;;;;;0.47;0.40;;;;;;;;;;4956602;28;20428;-95
2022/01/06 04:30:10;;;;;;;;;;;;;;;;;;;;;
2022/01/06 04:33:05;;;;;;;0.57;0.50;;;;;;;;;;4941278;29;20408;-95
2022/01/06 04:35:52;;;;;;;0.57;0.50;;;;;;;;;;4940446;29;20512;-95
2022/01/06 04:38:37;;;;;;;0.60;0.60;;;;;;;;;;4936258;29;20911;-96
2022/01/06 04:41:12;;;;;;;0.70;0.65;;;;;;;;;;4938805;29;20721;-95
2022/01/06 04:46:37;;;;;;;0.80;0.60;;;;;;;;;;4946807;28;20834;-94
2022/01/06 04:49:16;;;;;;;;;;;;;;;;;;;;;
2022/01/06 04:51:44;;;;;;;1.15;0.80;;;;;;;;;;4942407;29;20416;-93
2022/01/06 04:54:20;;;;;;;1.15;0.70;;;;;;;;;;4948003;28;20557;-95
2022/01/06 04:59:48;;;;;;;2.03;1.77;;;;;;;;;;4967837;28;20425;-95
2022/01/06 05:08:00;;;;;;;3.75;3.30;;;;;;;;;;4938137;29;20448;-95
2022/01/06 05:10:57;;;;;;;;;;;;;;;;;;;;;
2022/01/06 05:13:34;;;;;;;6.80;4.60;;;;;;;;;;4942587;28;20748;-93
2022/01/06 05:16:01;;;;;;;6.65;4.97;;;;;;;;;;4941855;29;20926;-95
2022/01/06 05:18:38;;;;;;;6.88;5.10;;;;;;;;;;4946207;29;20550;-95
2022/01/06 05:21:19;;;;;;;7.22;6.18;;;;;;;;;;4961001;28;20439;-96
2022/01/06 05:26:29;;;;;;;7.47;6.45;;;;;;;;;;4971301;28;20422;-95
2022/01/06 05:29:15;;;;;;;6.70;5.97;;;;;;;;;;4971259;28;20418;-95
2022/01/06 05:31:59;;;;;;;7.07;6.15;;;;;;;;;;4984361;23;20471;-93
2022/01/06 05:35:08;;;;;;;8.65;6.47;;;;;;;;;;4955067;28;20423;-93
2022/01/06 05:37:45;;;;;;;8.32;6.82;;;;;;;;;;4943122;28;20413;-93
2022/01/06 05:40:23;;;;;;;8.45;6.57;;;;;;;;;;4950893;28;20431;-93
2022/01/06 05:43:00;;;;;;;;;;;;;;;;;;;;;
2022/01/06 05:48:25;;;;;;;7.97;6.57;;;;;;;;;;4929505;29;20407;-95
2022/01/06 05:50:53;;;;;;;8.60;7.17;;;;;;;;;;4937489;29;20444;-95
2022/01/06 05:53:30;;;;;;;7.63;6.78;;;;;;;;;;4937236;28;20430;-95
2022/01/06 05:56:15;;;;;;;8.40;6.88;;;;;;;;;;4950781;29;20431;-95
2022/01/06 06:01:26;;;;;;;8.93;7.60;;;;;;;;;;4938357;28;20987;-96
2022/01/06 06:04:00;;;;;;;8.45;7.55;;;;;;;;;;4949808;29;20416;-96
2022/01/06 06:06:49;;;;;;;9.75;8.02;;;;;;;;;;4943786;28;20413;-95
2022/01/06 06:12:10;;;;;;;9.65;8.65;;;;;;;;;;4943484;28;20425;-96
2022/01/06 06:14:48;;;;;;;11.25;9.10;;;;;;;;;;4942342;28;20425;-95
2022/01/06 06:19:58;;;;;;;12.50;10.35;;;;;;;;;;4937601;28;20413;-95
2022/01/06 06:22:26;;;;;;;13.73;10.65;;;;;;;;;;4943162;28;20471;-93
2022/01/06 06:25:17;;;;;;;14.07;10.75;;;;;;;;;;4950537;28;20424;-95
2022/01/06 06:27:57;;;;;;;;;;;;;;;;;;;;;
2022/01/06 06:33:08;;;;;;;15.80;11.23;;;;;;;;;;4939680;28;20427;-96
2022/01/06 06:35:36;;;;;;;12.90;10.57;;;;;;;;;;4938598;28;20418;-95
2022/01/06 06:38:03;;;;;;;12.23;9.85;;;;;;;;;;4941663;28;20414;-92
2022/01/06 06:43:13;;;;;;;10.57;8.77;;;;;;;;;;4944996;29;20420;-95
2022/01/06 06:45:52;;;;;;;10.13;9.00;;;;;;;;;;4931949;28;20425;-94
2022/01/06 06:48:19;;;;;;;11.52;8.65;;;;;;;;;;4938759;29;20421;-94
2022/01/06 06:53:27;;;;;;;12.02;9.85;;;;;;;;;;4938847;29;20408;-95
2022/01/06 06:56:14;;;;;;;14.50;10.00;;;;;;;;;;4934132;29;20420;-94
2022/01/06 06:58:44;;;;;;;11.13;9.70;;;;;;;;;;4938712;28;20417;-95
2022/01/06 07:01:18;;;;;;;11.93;9.95;;;;;;;;;;4931609;28;20414;-95
2022/01/06 07:03:54;;;;;;;11.77;10.27;;;;;;;;;;4935938;29;20469;-95
2022/01/06 07:06:43;;;;;;;12.23;10.07;;;;;;;;;;4947179;29;20447;-94
2022/01/06 07:12:00;;;;;;;13.00;10.70;;;;;;;;;;4933977;29;20408;-94
2022/01/06 07:14:43;;;;;;;12.77;10.90;;;;;;;;;;4943426;29;20420;-95
2022/01/06 07:17:22;;;;;;;13.02;11.18;;;;;;;;;;4948071;28;20757;-96
2022/01/06 07:20:00;;;;;;;13.00;10.90;;;;;;;;;;4931700;29;20417;-94
2022/01/06 07:22:32;;;;;;;13.23;11.10;;;;;;;;;;4951129;29;20417;-95
2022/01/06 07:25:10;;;;;;;12.57;10.70;;;;;;;;;;4960091;28;20444;-94
2022/01/06 07:27:54;;;;;;;13.23;10.68;;;;;;;;;;4966588;29;20463;-95
2022/01/06 07:33:42;;;;;;;12.95;10.75;;;;;;;;;;4938421;28;20860;-94
2022/01/06 07:36:21;;;;;;;;;;;;;;;;;;;;;
2022/01/06 07:38:49;;;;;;;16.33;13.05;;;;;;;;;;4938087;29;20408;-95
2022/01/06 07:44:55;;;;;;;23.92;21.13;;;;;;;;;;4892357;28;20408;-95
2022/01/06 07:47:25;;;;;;;28.88;24.60;;;;;;;;;;4926498;29;20410;-95
2022/01/06 07:50:31;;;;;;;37.28;31.70;;;;;;;;;;4931232;29;20418;-95
2022/01/06 07:53:13;;;;;;;33.92;28.10;;;;;;;;;;4935228;29;20416;-94
2022/01/06 07:55:40;;;;;;;34.45;28.35;;;;;;;;;;4939506;29;20425;-95
2022/01/06 07:58:10;;;;;;;32.55;26.77;;;;;;;;;;4945608;28;20507;-94
2022/01/06 08:01:01;;;;;;;;;;;;;;;;;;;;;
2022/01/06 08:03:31;;;;;;;24.55;19.67;;;;;;;;;;4948278;29;20419;-94
2022/01/06 08:06:08;;;;;;;23.23;18.57;;;;;;;;;;4940844;28;20434;-95
2022/01/06 08:08:48;;;;;;;19.57;16.87;;;;;;;;;;4945352;28;20669;-95
2022/01/06 08:11:23;;;;;;;20.53;17.13;;;;;;;;;;4944592;28;20416;-94
2022/01/06 08:13:50;;;;;;;19.33;16.17;;;;;;;;;;4948003;28;20798;-94
2022/01/06 08:16:28;;;;;;;17.65;14.93;;;;;;;;;;4944686;28;20412;-94
2022/01/06 08:18:56;;;;;;;18.07;15.43;;;;;;;;;;4945261;29;20498;-94
2022/01/06 08:21:35;;;;;;;17.92;14.77;;;;;;;;;;4944252;28;20848;-95
2022/01/06 08:24:04;;;;;;;18.60;15.32;;;;;;;;;;4935302;29;20865;-94
2022/01/06 08:26:37;;;;;;;17.48;14.80;;;;;;;;;;4943334;28;20901;-94
2022/01/06 08:29:04;;;;;;;16.70;14.02;;;;;;;;;;4939800;28;20410;-94
2022/01/06 08:34:44;;;;;;;16.50;13.50;;;;;;;;;;4930173;28;20468;-93
2022/01/06 08:37:28;;;;;;;16.98;13.80;;;;;;;;;;4947834;28;20420;-94
2022/01/06 08:40:02;;;;;;;17.73;14.90;;;;;;;;;;4947369;28;20426;-94
2022/01/06 08:42:29;;;;;;;21.25;16.65;;;;;;;;;;4943703;28;20424;-95
2022/01/06 08:44:58;;;;;;;17.05;15.25;;;;;;;;;;4944144;28;20416;-95
2022/01/06 08:47:30;;;;;;;16.05;14.07;;;;;;;;;;4944214;28;20805;-94
2022/01/06 08:50:00;;;;;;;15.68;13.07;;;;;;;;;;4946517;28;20420;-94
2022/01/06 08:52:27;;;;;;;15.77;13.05;;;;;;;;;;4944459;28;20770;-95
2022/01/06 08:54:54;;;;;;;15.18;12.10;;;;;;;;;;4948434;28;20424;-94
2022/01/06 08:57:31;;;;;;;14.77;12.43;;;;;;;;;;4940634;29;20412;-94
2022/01/06 09:00:11;;;;;;;16.05;13.52;;;;;;;;;;4947634;28;20502;-95
2022/01/06 09:02:50;;;;;;;13.77;11.17;;;;;;;;;;4945945;28;20899;-95
2022/01/06 09:05:27;;;;;;;17.23;12.10;;;;;;;;;;4950675;28;20431;-95
2022/01/06 09:08:04;;;;;;;;;;;;;;;;;;;;;
2022/01/06 09:10:42;;;;;;;14.00;11.93;;;;;;;;;;4937716;29;21004;-94
2022/01/06 09:13:09;;;;;;;13.73;11.77;;;;;;;;;;4934280;29;20460;-94
2022/01/06 09:15:47;;;;;;;13.02;11.63;;;;;;;;;;4938491;29;20428;-95
2022/01/06 09:18:23;;;;;;;11.77;10.50;;;;;;;;;;4944564;28;20442;-94
2022/01/06 09:20:51;;;;;;;11.68;9.63;;;;;;;;;;4951104;28;20673;-94
2022/01/06 09:23:22;;;;;;;11.30;10.07;;;;;;;;;;4946971;29;20416;-93
2022/01/06 09:26:00;;;;;;;11.30;10.07;;;;;;;;;;4947420;28;20420;-94
2022/01/06 09:28:30;;;;;;;11.50;9.75;;;;;;;;;;4934133;29;20925;-94
2022/01/06 09:31:05;;;;;;;13.10;10.57;;;;;;;;;;4944557;29;20911;-93
2022/01/06 09:33:39;;;;;;;14.60;12.05;;;;;;;;;;4946024;28;20420;-94
2022/01/06 09:37:16;;;;;;;;;;;;;;;;;;;;;
2022/01/06 09:39:53;;;;;;;;;;;;;;;;;;;;;
2022/01/06 09:42:37;;;;;;;12.18;9.95;;;;;;;;;;4878637;29;20738;-95
2022/01/06 09:47:53;;;;;;;12.05;10.27;;;;;;;;;;4892286;28;20914;-95
2022/01/06 09:50:31;;;;;;;14.48;11.38;;;;;;;;;;4946549;29;21157;-94
2022/01/06 09:52:58;;;;;;;18.53;14.37;;;;;;;;;;4936115;29;20540;-93
2022/01/06 09:55:34;;;;;;;31.98;25.02;;;;;;;;;;4948358;29;20503;-94
2022/01/06 09:58:06;;;;;;;54.40;36.90;;;;;;;;;;4940657;29;20443;-94
2022/01/06 10:03:23;;;;;;;14.35;11.10;;;;;;;;;;4942828;28;20417;-94
2022/01/06 10:05:56;;;;;;;17.95;14.45;;;;;;;;;;4948940;28;20758;-94
2022/01/06 10:08:43;;;;;;;21.75;15.80;;;;;;;;;;4949145;28;20802;-94
2022/01/06 10:11:16;;;;;;;17.20;13.52;;;;;;;;;;4934070;29;20429;-94
2022/01/06 10:14:09;;;;;;;16.73;13.20;;;;;;;;;;4945812;29;20439;-95
2022/01/06 10:16:49;;;;;;;12.15;9.75;;;;;;;;;;4933104;29;20925;-93
2022/01/06 10:19:25;;;;;;;9.63;8.10;;;;;;;;;;4933723;29;20431;-95
2022/01/06 10:22:29;;;;;;;10.15;7.13;;;;;;;;;;4933427;29;20412;-95
2022/01/06 10:24:56;;;;;;;7.43;6.63;;;;;;;;;;4940536;29;20472;-94
2022/01/06 10:27:26;;;;;;;7.72;6.13;;;;;;;;;;4939352;28;20428;-94
2022/01/06 10:30:06;;;;;;;13.90;12.40;;;;;;;;;;4945749;29;21294;-96
2022/01/06 10:32:34;;;;;;;9.43;8.38;;;;;;;;;;4948472;28;20783;-95
2022/01/06 10:35:05;;;;;;;6.10;5.50;;;;;;;;;;4942168;28;20424;-94
2022/01/06 10:37:53;;;;;;;6.35;5.13;;;;;;;;;;4962785;29;20440;-94
2022/01/06 10:40:46;;;;;;;6.25;4.82;;;;;;;;;;4957678;28;20491;-95
2022/01/06 10:43:39;;;;;;;4.70;4.15;;;;;;;;;;4941522;29;20417;-95
2022/01/06 10:46:14;;;;;;;4.97;4.32;;;;;;;;;;4942433;29;20832;-95
2022/01/06 10:49:12;;;;;;;4.40;3.60;;;;;;;;;;4947035;28;20416;-94
2022/01/06 10:51:53;;;;;;;5.15;4.63;;;;;;;;;;4947443;28;20443;-94
2022/01/06 10:54:53;;;;;;;5.82;4.43;;;;;;;;;;4946063;29;20447;-95
2022/01/06 11:00:19;;;;;;;5.38;3.90;;;;;;;;;;4939015;28;20414;-94
2022/01/06 11:03:05;;;;;;;4.40;3.67;;;;;;;;;;4942076;28;20432;-95
2022/01/06 11:05:32;;;;;;;4.57;3.85;;;;;;;;;;4933580;29;20422;-95
2022/01/06 11:08:30;;;;;;;5.25;4.40;;;;;;;;;;4946906;28;20420;-95
2022/01/06 11:11:31;;;;;;;5.68;4.47;;;;;;;;;;4947845;28;20424;-95
2022/01/06 11:14:18;;;;;;;;;;;;;;;;;;;;;
2022/01/06 11:19:50;;;;;;;5.25;4.50;;;;;;;;;;4932173;28;20418;-94
2022/01/06 11:22:51;;;;;;;5.95;4.63;;;;;;;;;;4941266;29;20767;-95
2022/01/06 11:25:43;;;;;;;5.95;5.03;;;;;;;;;;4939112;29;20432;-95
2022/01/06 11:28:34;;;;;;;6.07;4.70;;;;;;;;;;4947311;29;20506;-94
2022/01/06 11:31:21;;;;;;;5.40;4.53;;;;;;;;;;4947213;28;20482;-95
2022/01/06 11:33:50;;;;;;;7.72;5.03;;;;;;;;;;4946667;28;20430;-95
2022/01/06 11:36:35;;;;;;;6.37;4.67;;;;;;;;;;4944814;29;20748;-95
2022/01/06 11:39:10;;;;;;;5.05;4.45;;;;;;;;;;4946383;29;20428;-95
2022/01/06 11:41:51;;;;;;;8.52;5.75;;;;;;;;;;4941579;29;20424;-95
2022/01/06 11:44:42;;;;;;;5.97;5.07;;;;;;;;;;4939711;28;20416;-95
2022/01/06 11:47:09;;;;;;;4.88;3.50;;;;;;;;;;4943231;29;20468;-95
2022/01/06 11:49:39;;;;;;;3.60;2.85;;;;;;;;;;4939649;28;20420;-95
2022/01/06 11:52:11;;;;;;;3.03;2.15;;;;;;;;;;4942197;29;20419;-95
2022/01/06 11:55:22;;;;;;;3.17;1.30;;;;;;;;;;4947357;29;20800;-92
2022/01/06 11:57:49;;;;;;;2.05;1.35;;;;;;;;;;4943427;28;20420;-95
2022/01/06 12:00:35;;;;;;;3.65;1.95;;;;;;;;;;4945463;28;20927;-93
2022/01/06 12:03:11;;;;;;;4.85;2.70;;;;;;;;;;4942873;29;20520;-94
2022/01/06 12:05:43;;;;;;;2.45;1.30;;;;;;;;;;4940900;29;20495;-94
2022/01/06 12:08:11;;;;;;;2.28;1.50;;;;;;;;;;4938011;28;20416;-94
2022/01/06 12:10:52;;;;;;;2.63;1.20;;;;;;;;;;4946521;28;20502;-94
2022/01/06 12:13:27;;;;;;;2.05;1.30;;;;;;;;;;4944605;29;20482;-94
2022/01/06 12:16:04;;;;;;;1.10;0.70;;;;;;;;;;4941851;28;20459;-95
2022/01/06 12:18:37;;;;;;;1.00;0.83;;;;;;;;;;4944246;29;20590;-94
2022/01/06 12:21:19;;;;;;;1.23;0.90;;;;;;;;;;4944463;28;20859;-94
2022/01/06 12:23:59;;;;;;;0.88;0.77;;;;;;;;;;4942021;29;20485;-95
2022/01/06 12:26:29;;;;;;;1.00;0.70;;;;;;;;;;4945276;29;20494;-94
2022/01/06 12:29:09;;;;;;;1.83;1.10;;;;;;;;;;4938723;29;20542;-94
2022/01/06 12:31:38;;;;;;;1.30;0.70;;;;;;;;;;4933925;29;20480;-93
2022/01/06 12:34:08;;;;;;;0.60;0.50;;;;;;;;;;4942411;29;20461;-94
2022/01/06 12:36:45;;;;;;;0.90;0.52;;;;;;;;;;4942502;29;20455;-94
2022/01/06 12:39:27;;;;;;;0.55;0.40;;;;;;;;;;4942994;28;20467;-94
2022/01/06 12:42:02;;;;;;;1.00;0.80;;;;;;;;;;4946039;29;20487;-94
2022/01/06 12:44:56;;;;;;;1.10;0.98;;;;;;;;;;4937200;29;20493;-94
2022/01/06 12:47:32;;;;;;;0.70;0.70;;;;;;;;;;4943716;29;20593;-94
2022/01/06 12:50:02;;;;;;;0.52;0.52;;;;;;;;;;4942231;29;20582;-94
2022/01/06 12:52:36;;;;;;;1.40;1.02;;;;;;;;;;4936719;29;20466;-95
2022/01/06 12:55:18;;;;;;;1.38;1.00;;;;;;;;;;4940101;29;20485;-94
2022/01/06 12:57:56;;;;;;;1.05;0.90;;;;;;;;;;4946469;28;20513;-94
2022/01/06 13:00:23;;;;;;;1.50;1.30;;;;;;;;;;4944057;29;20448;-95
2022/01/06 13:03:05;;;;;;;1.65;1.02;;;;;;;;;;4942479;29;20418;-93
2022/01/06 13:05:35;;;;;;;0.80;0.60;;;;;;;;;;4957000;29;20453;-93
2022/01/06 13:08:06;;;;;;;0.63;0.40;;;;;;;;;;4956361;28;20485;-93
2022/01/06 13:10:40;;;;;;;0.70;0.50;;;;;;;;;;4958890;28;20548;-94
2022/01/06 13:13:08;;;;;;;0.88;0.60;;;;;;;;;;4984177;23;20844;-93
2022/01/06 13:15:36;;;;;;;2.13;1.20;;;;;;;;;;4990212;28;20723;-93
2022/01/06 13:18:19;;;;;;;2.10;1.70;;;;;;;;;;4991008;28;20458;-94
2022/01/06 13:23:54;;;;;;;0.80;0.80;;;;;;;;;;4937417;28;20421;-93
2022/01/06 13:26:21;;;;;;;0.77;0.70;;;;;;;;;;4970025;28;20493;-94
2022/01/06 13:28:56;;;;;;;1.40;1.10;;;;;;;;;;4970163;28;20716;-93
2022/01/06 13:31:24;;;;;;;1.35;1.10;;;;;;;;;;4967904;28;20434;-95
2022/01/06 13:34:01;;;;;;;1.27;1.00;;;;;;;;;;4967397;28;20450;-93
2022/01/06 13:36:39;;;;;;;0.93;0.82;;;;;;;;;;4964625;28;20406;-94
2022/01/06 13:39:33;;;;;;;1.00;0.90;;;;;;;;;;4964673;28;20921;-94
2022/01/06 13:42:00;;;;;;;1.52;1.40;;;;;;;;;;4951946;28;20771;-94
2022/01/06 13:44:27;;;;;;;1.55;1.02;;;;;;;;;;4966902;28;20660;-94
2022/01/06 13:47:10;;;;;;;1.98;1.70;;;;;;;;;;4971017;28;20415;-94
2022/01/06 13:52:28;;;;;;;1.73;1.60;;;;;;;;;;4968677;28;20530;-94
2022/01/06 13:55:04;;;;;;;2.25;1.55;;;;;;;;;;4969798;28;20793;-94
2022/01/06 13:57:31;;;;;;;1.95;1.60;;;;;;;;;;4968603;28;20418;-94
2022/01/06 13:59:58;;;;;;;2.55;1.83;;;;;;;;;;4967254;28;20414;-95
2022/01/06 14:02:25;;;;;;;2.97;1.80;;;;;;;;;;4969912;28;20477;-94
2022/01/06 14:04:55;;;;;;;2.83;2.25;;;;;;;;;;4970349;28;20771;-94
2022/01/06 14:07:25;;;;;;;1.77;1.42;;;;;;;;;;4969220;28;20434;-94
2022/01/06 14:09:52;;;;;;;1.70;1.50;;;;;;;;;;4969046;28;20424;-94
2022/01/06 14:12:19;;;;;;;2.47;1.10;;;;;;;;;;4969961;28;20430;-94
2022/01/06 14:14:46;;;;;;;1.23;1.13;;;;;;;;;;4969849;28;20976;-94
2022/01/06 14:17:13;;;;;;;1.20;1.08;;;;;;;;;;4970468;28;20414;-94
2022/01/06 14:19:40;;;;;;;2.10;1.33;;;;;;;;;;4970207;28;20436;-93
2022/01/06 14:22:12;;;;;;;1.38;1.23;;;;;;;;;;4967371;28;20419;-94
2022/01/06 14:24:42;;;;;;;1.10;1.00;;;;;;;;;;4966793;28;20424;-94
2022/01/06 14:27:12;;;;;;;1.63;1.52;;;;;;;;;;4970267;28;20481;-95
2022/01/06 14:29:39;;;;;;;1.50;1.40;;;;;;;;;;4969952;28;20422;-95
2022/01/06 14:32:12;;;;;;;2.03;1.42;;;;;;;;;;4969656;28;20411;-94
2022/01/06 14:34:39;;;;;;;2.33;1.77;;;;;;;;;;4970246;28;20414;-94
2022/01/06 14:37:06;;;;;;;3.03;1.80;;;;;;;;;;4969950;28;20415;-95
2022/01/06 14:39:35;;;;;;;2.58;2.08;;;;;;;;;;4968562;28;20420;-94
2022/01/06 14:42:02;;;;;;;3.60;2.20;;;;;;;;;;4970372;28;20457;-93
2022/01/06 14:44:29;;;;;;;3.65;2.47;;;;;;;;;;4967463;28;20452;-94
2022/01/06 14:46:58;;;;;;;3.58;2.00;;;;;;;;;;4974547;28;20414;-94
2022/01/06 14:49:25;;;;;;;3.25;2.40;;;;;;;;;;4975350;28;21140;-93
2022/01/06 14:51:55;;;;;;;2.80;1.80;;;;;;;;;;4990054;28;20494;-93
2022/01/06 14:54:23;;;;;;;1.92;1.80;;;;;;;;;;4989541;28;20525;-94
2022/01/06 14:56:59;;;;;;;3.08;2.40;;;;;;;;;;4970042;28;20406;-94
2022/01/06 14:59:27;;;;;;;5.00;4.00;;;;;;;;;;4977906;28;20407;-93
2022/01/06 15:01:57;;;;;;;4.32;3.50;;;;;;;;;;4972485;28;20410;-93
2022/01/06 15:04:23;;;;;;;4.40;3.70;;;;;;;;;;4968873;28;20426;-93
2022/01/06 15:06:50;;;;;;;3.20;2.60;;;;;;;;;;4968514;28;20434;-93
2022/01/06 15:09:17;;;;;;;2.80;2.42;;;;;;;;;;4967586;28;20420;-93
2022/01/06 15:11:49;;;;;;;2.53;2.33;;;;;;;;;;4972840;28;20431;-92
2022/01/06 15:14:18;;;;;;;4.00;2.40;;;;;;;;;;4970110;28;20476;-93
2022/01/06 15:19:25;;;;;;;2.90;2.30;;;;;;;;;;4969008;28;20422;-93
2022/01/06 15:21:52;;;;;;;8.25;4.22;;;;;;;;;;4967795;28;20423;-93
2022/01/06 15:24:22;;;;;;;19.98;9.68;;;;;;;;;;4966191;28;20427;-93
2022/01/06 15:26:50;;;;;;;18.33;8.43;;;;;;;;;;4965293;28;20459;-93
2022/01/06 15:29:19;;;;;;;27.92;11.50;;;;;;;;;;4969267;28;20410;-93
2022/01/06 15:31:46;;;;;;;30.25;13.13;;;;;;;;;;4968630;28;20946;-93
2022/01/06 15:34:16;;;;;;;15.30;6.72;;;;;;;;;;4968544;28;20429;-94
2022/01/06 15:36:45;;;;;;;47.78;18.60;;;;;;;;;;4968324;28;20468;-92
2022/01/06 15:39:13;;;;;;;19.08;8.45;;;;;;;;;;4968613;28;21114;-93
2022/01/06 15:41:40;;;;;;;20.08;9.43;;;;;;;;;;4968459;28;20430;-93
2022/01/06 15:44:07;;;;;;;16.08;9.05;;;;;;;;;;4968887;28;20420;-94
2022/01/06 15:46:39;;;;;;;5.55;3.08;;;;;;;;;;4968330;28;20888;-93
2022/01/06 15:49:07;;;;;;;16.90;7.55;;;;;;;;;;4968481;28;20429;-93
2022/01/06 15:51:40;;;;;;;23.63;10.07;;;;;;;;;;4968779;28;20419;-93
2022/01/06 15:54:08;;;;;;;12.05;6.20;;;;;;;;;;4967179;28;20416;-93
2022/01/06 15:56:36;;;;;;;20.35;9.75;;;;;;;;;;4966948;28;20420;-93
2022/01/06 15:59:03;;;;;;;19.92;9.32;;;;;;;;;;4968193;28;20414;-93
2022/01/06 16:04:58;;;;;;;15.25;7.07;;;;;;;;;;4965907;28;20428;-93
2022/01/06 16:07:17;;;;;;;14.35;7.60;;;;;;;;;;4968120;28;21057;-93
2022/01/06 16:09:44;;;;;;;12.20;6.60;;;;;;;;;;4967429;28;20406;-93
2022/01/06 16:12:12;;;;;;;9.67;5.30;;;;;;;;;;4967840;28;20467;-93
2022/01/06 16:14:40;;;;;;;11.17;6.10;;;;;;;;;;4967674;28;20422;-92
2022/01/06 16:17:07;;;;;;;9.45;5.68;;;;;;;;;;4968937;28;20429;-93
2022/01/06 16:19:36;;;;;;;9.27;5.75;;;;;;;;;;4967741;28;20418;-92
2022/01/06 16:22:03;;;;;;;8.15;4.70;;;;;;;;;;4968200;28;20741;-94
2022/01/06 16:24:30;;;;;;;7.43;4.97;;;;;;;;;;4962850;28;20410;-94
2022/01/06 16:26:58;;;;;;;5.45;4.30;;;;;;;;;;4967735;28;20422;-92
2022/01/06 16:29:30;;;;;;;6.57;4.30;;;;;;;;;;4968016;28;20734;-94
2022/01/06 16:32:05;;;;;;;8.30;4.80;;;;;;;;;;4968572;28;20418;-93
2022/01/06 16:34:32;;;;;;;9.73;5.13;;;;;;;;;;4965541;28;20414;-93
2022/01/06 16:37:01;;;;;;;6.80;4.57;;;;;;;;;;4967566;28;20421;-92
2022/01/06 16:39:28;;;;;;;7.73;5.17;;;;;;;;;;4964581;28;20504;-93
2022/01/06 16:41:55;;;;;;;9.00;5.78;;;;;;;;;;4967879;28;20450;-93
2022/01/06 16:44:22;;;;;;;10.98;7.25;;;;;;;;;;4967805;28;20411;-93
2022/01/06 16:46:52;;;;;;;12.63;7.38;;;;;;;;;;4967836;28;20898;-93
2022/01/06 16:49:19;;;;;;;11.15;8.20;;;;;;;;;;4966250;28;20667;-93
2022/01/06 16:51:46;;;;;;;15.75;10.10;;;;;;;;;;4967346;28;20421;-92
2022/01/06 16:54:16;;;;;;;13.85;9.30;;;;;;;;;;4965030;28;20765;-93
2022/01/06 16:56:43;;;;;;;16.90;10.93;;;;;;;;;;4968025;28;20447;-92
2022/01/06 16:59:10;;;;;;;15.77;11.25;;;;;;;;;;4967463;28;20422;-93
2022/01/06 17:01:40;;;;;;;13.30;9.32;;;;;;;;;;4967598;28;20438;-93
2022/01/06 17:04:14;;;;;;;13.63;9.43;;;;;;;;;;4967843;28;20756;-93
2022/01/06 17:06:42;;;;;;;12.80;8.43;;;;;;;;;;4967815;28;20414;-93
2022/01/06 17:09:11;;;;;;;11.15;8.18;;;;;;;;;;4965265;28;20433;-92
2022/01/06 17:11:39;;;;;;;12.33;8.50;;;;;;;;;;4967290;28;20903;-92
2022/01/06 17:14:06;;;;;;;12.73;9.60;;;;;;;;;;4967251;28;20961;-93
2022/01/06 17:16:33;;;;;;;12.68;9.52;;;;;;;;;;4968085;28;20413;-94
2022/01/06 17:19:08;;;;;;;12.27;9.48;;;;;;;;;;4968426;28;20414;-95
2022/01/06 17:21:35;;;;;;;11.43;9.10;;;;;;;;;;4963006;28;20991;-94
2022/01/06 17:24:02;;;;;;;13.88;10.05;;;;;;;;;;4966979;28;20417;-95
2022/01/06 17:26:32;;;;;;;11.93;8.73;;;;;;;;;;4967128;28;20429;-92
2022/01/06 17:29:01;;;;;;;13.40;10.32;;;;;;;;;;4970576;28;20426;-91
2022/01/06 17:31:29;;;;;;;12.63;9.38;;;;;;;;;;4969192;28;20426;-93
2022/01/06 17:33:56;;;;;;;11.95;9.20;;;;;;;;;;4969771;28;20422;-92
2022/01/06 17:36:25;;;;;;;12.40;9.80;;;;;;;;;;4970221;28;21221;-92
2022/01/06 17:38:52;;;;;;;12.40;10.05;;;;;;;;;;4967173;28;20420;-94
2022/01/06 17:41:19;;;;;;;12.55;10.00;;;;;;;;;;4970992;28;20421;-93
2022/01/06 17:43:46;;;;;;;15.32;10.25;;;;;;;;;;4970315;28;20414;-94
2022/01/06 17:46:14;;;;;;;12.45;10.60;;;;;;;;;;4970303;28;20414;-91
2022/01/06 17:48:41;;;;;;;14.52;11.77;;;;;;;;;;4970168;28;20433;-93
2022/01/06 17:51:08;;;;;;;17.17;11.52;;;;;;;;;;4978007;28;20414;-91